Latest Weather Observations for Tuggeranong

IDN60901

Issued at 5:21 am EST Monday 6 April 2020 (issued every 10 minutes, with the page automatically refreshed every 10 minutes)

About weather observations | Map of Canberra area stations | Latest observations for Canberra area | Other Formats
Station Details ID: 070339 Name: TUGGERANONG (ISABELLA PLAINS) AWS Lat: -35.42 Lon: 149.09 Height: 586.7 m
Data from the previous 72 hours. | See also: Recent months at Tuggeranong
Date/Time
EST
Temp
°C
App
Temp
°C
Dew
Point
°C
Rel
Hum
%
Delta-T
°C
Wind Press
QNH
hPa
Press
MSL
hPa
Rain since
9am
mm
Dir  Spd
km/h
Gust
km/h
Spd
kts
Gust
kts
06/05:00am 10.3 8.3 10.3 100 0.0 NNW 11 20 6 11 1016.7 1015.7 0.2
06/04:30am 10.2 8.2 10.2 100 0.0 NNW 11 19 6 10 1016.4 1015.4 0.0
06/04:00am 10.4 8.0 10.2 99 0.1 NNW 13 24 7 13 1016.2 1015.2 0.0
06/03:30am 10.6 8.3 10.4 99 0.1 NNW 13 20 7 11 1016.2 1015.2 0.0
06/03:00am 10.6 8.3 10.6 100 0.0 N 13 20 7 11 1016.3 1015.3 0.0
06/02:30am 10.8 8.2 10.6 99 0.1 N 15 22 8 12 1016.3 1015.3 0.0
06/02:00am 10.9 7.8 10.3 96 0.3 N 17 24 9 13 1016.3 1015.3 0.0
06/01:30am 11.0 8.2 9.9 93 0.6 N 15 24 8 13 1016.4 1015.4 0.0
06/01:00am 11.1 8.6 9.7 91 0.7 N 13 20 7 11 1016.4 1015.4 0.0
06/12:30am 11.0 8.4 9.4 90 0.8 N 13 19 7 10 1016.4 1015.4 0.0
06/12:00am 11.2 8.5 9.1 87 1.1 N 13 19 7 10 1016.2 1015.2 0.0
 
Date/Time
EST
Temp
°C
App
Temp
°C
Dew
Point
°C
Rel
Hum
%
Delta-T
°C
Wind Press
QNH
hPa
Press
MSL
hPa
Rain since
9am
mm
Dir  Spd
km/h
Gust
km/h
Spd
kts
Gust
kts
05/11:30pm 11.1 8.4 8.8 86 1.2 N 13 20 7 11 1016.2 1015.2 0.0
05/11:00pm 11.3 8.5 8.7 84 1.3 N 13 19 7 10 1016.3 1015.3 0.0
05/10:30pm 11.7 9.6 8.2 79 1.8 N 9 17 5 9 1016.2 1015.2 0.0
05/10:00pm 11.8 9.6 7.7 76 2.1 N 9 17 5 9 1015.9 1014.9 0.0
05/09:30pm 11.7 9.8 7.6 76 2.1 NNW 7 13 4 7 1015.9 1014.9 0.0
05/09:00pm 11.6 8.6 7.7 77 2.0 NW 13 20 7 11 1015.8 1014.7 0.0
05/08:30pm 11.5 8.4 7.4 76 2.0 WNW 13 24 7 13 1015.7 1014.6 0.0
05/08:00pm 11.8 8.6 6.9 72 2.4 NW 13 19 7 10 1015.4 1014.4 0.0
05/07:30pm 11.6 8.8 6.9 73 2.3 NW 11 17 6 9 1015.3 1014.3 0.0
05/07:00pm 11.5 8.3 7.0 74 2.2 NW 13 22 7 12 1015.1 1014.1 0.0
05/06:30pm 11.4 8.2 6.9 74 2.2 NW 13 24 7 13 1014.8 1013.8 0.0
05/06:00pm 11.6 8.4 6.7 72 2.4 NW 13 24 7 13 1014.5 1013.5 0.0
05/05:30pm 11.9 8.2 6.4 69 2.7 NW 15 24 8 13 1014.4 1013.4 0.0
05/05:00pm 12.0 8.0 6.5 69 2.7 NW 17 30 9 16 1013.9 1012.8 0.0
05/04:30pm 12.3 8.2 6.1 66 3.0 WNW 17 24 9 13 1013.7 1012.7 0.0
05/04:00pm 12.3 7.8 5.9 65 3.1 WNW 19 35 10 19 1013.4 1012.4 0.0
05/03:30pm 12.3 7.7 5.7 64 3.2 WNW 19 32 10 17 1013.3 1012.3 0.0
05/03:00pm 12.3 7.1 5.5 63 3.3 WNW 22 35 12 19 1013.4 1012.4 0.0
05/02:30pm 12.7 7.0 4.9 59 3.7 WNW 24 39 13 21 1013.2 1012.2 0.0
05/02:00pm 13.5 7.4 4.9 56 4.1 WNW 26 39 14 21 1013.1 1012.1 0.0
05/01:30pm 14.1 8.2 5.7 57 4.1 NW 26 44 14 24 1013.2 1012.2 0.0
05/01:05pm 13.4 6.8 4.0 53 4.4 WNW 28 50 15 27 1013.2 1012.2 0.0
05/01:00pm 13.5 7.4 4.9 56 4.1 WNW 26 41 14 22 1013.2 1012.2 0.0
05/12:30pm 13.3 7.2 5.0 57 4.0 WNW 26 44 14 24 1013.2 1012.2 0.0
05/12:00pm 12.5 5.5 4.0 56 4.0 NW 30 44 16 24 1013.1 1012.1 0.0
05/11:47am 12.5 5.8 3.7 55 4.1 NW 28 48 15 26 1013.3 1012.3 0.0
05/11:30am 12.6 6.3 3.8 55 4.1 WNW 26 39 14 21 1013.5 1012.5 0.0
05/11:11am 13.0 6.4 4.2 55 4.1 WNW 28 46 15 25 1013.4 1012.4 0.0
05/11:00am 12.7 6.9 4.4 57 3.9 WNW 24 44 13 24 1013.5 1012.5 0.0
05/10:30am 12.2 6.2 3.4 55 4.0 NW 24 41 13 22 1013.6 1012.6 0.0
05/10:00am 12.0 6.4 3.3 55 4.0 WNW 22 37 12 20 1013.9 1012.8 0.0
05/09:30am 11.5 5.4 3.0 56 3.8 WNW 24 35 13 19 1013.6 1012.6 0.0
05/09:00am 11.0 4.4 2.3 55 3.9 WNW 26 35 14 19 1013.7 1012.7 0.4
05/08:30am 10.7 5.3 2.3 56 3.7 WNW 20 33 11 18 1013.5 1012.5 0.4
05/08:00am 10.7 5.3 2.5 57 3.6 WNW 20 35 11 19 1013.1 1012.1 0.4
05/07:30am 10.3 4.9 2.7 59 3.4 WNW 20 37 11 20 1012.6 1011.5 0.4
05/07:00am 9.9 5.1 2.7 61 3.2 WNW 17 30 9 16 1012.4 1011.3 0.4
05/06:30am 10.1 4.9 3.4 63 3.0 WNW 20 33 11 18 1011.8 1010.8 0.4
05/06:00am 10.2 4.9 3.0 61 3.2 WNW 20 33 11 18 1011.4 1010.4 0.4
05/05:30am 10.2 5.0 3.7 64 3.0 NW 20 35 11 19 1011.2 1010.1 0.4
05/05:00am 10.0 5.5 4.0 66 2.7 WNW 17 28 9 15 1010.8 1009.7 0.4
05/04:30am 10.4 5.5 3.9 64 3.0 WNW 19 32 10 17 1010.6 1009.5 0.4
05/04:00am 10.1 5.2 4.3 67 2.7 NW 19 33 10 18 1010.1 1009.1 0.4
05/03:30am 10.2 4.7 4.1 66 2.8 NW 22 37 12 20 1009.9 1008.9 0.4
05/03:00am 10.2 4.3 3.9 65 2.9 NW 24 33 13 18 1009.4 1008.3 0.4
05/03:30am 10.2 5.1 3.9 65 2.9 NW 20 32 11 17 1009.7 1008.6 0.4
05/03:00am 10.3 4.6 4.7 68 2.6 NW 24 35 13 19 1009.9 1008.9 0.4
05/02:30am 10.2 4.9 4.8 69 2.5 NW 22 32 12 17 1010.3 1009.2 0.4
05/02:00am 10.5 5.7 4.6 67 2.7 NW 19 28 10 15 1010.0 1009.0 0.4
05/01:30am 10.4 6.8 5.0 69 2.5 NNW 13 22 7 12 1010.0 1009.0 0.4
05/01:00am 10.4 6.5 5.2 70 2.5 NW 15 24 8 13 1009.9 1008.9 0.4
05/12:30am 10.0 6.4 5.0 71 2.3 NW 13 20 7 11 1009.6 1008.5 0.4
05/12:00am 10.3 6.7 5.1 70 2.4 NNW 13 24 7 13 1009.5 1008.4 0.4
 
Date/Time
EST
Temp
°C
App
Temp
°C
Dew
Point
°C
Rel
Hum
%
Delta-T
°C
Wind Press
QNH
hPa
Press
MSL
hPa
Rain since
9am
mm
Dir  Spd
km/h
Gust
km/h
Spd
kts
Gust
kts
04/11:30pm 10.8 6.0 4.9 67 2.8 NW 19 35 10 19 1009.5 1008.4 0.4
04/11:00pm 10.7 6.5 5.5 70 2.5 NNW 17 26 9 14 1009.4 1008.3 0.4
04/10:30pm 10.6 6.8 6.0 73 2.2 N 15 24 8 13 1009.4 1008.3 0.4
04/10:00pm 10.2 5.8 6.4 77 1.8 NW 19 33 10 18 1009.3 1008.2 0.4
04/09:30pm 12.0 8.3 6.1 67 2.9 NW 15 24 8 13 1008.8 1007.7 0.4
04/09:00pm 11.8 8.0 5.7 66 2.9 NNW 15 26 8 14 1008.1 1007.0 0.4
04/08:30pm 11.8 7.9 5.4 65 3.1 NNW 15 24 8 13 1008.0 1006.9 0.4
04/08:00pm 11.8 8.3 5.4 65 3.1 NW 13 22 7 12 1007.6 1006.5 0.4
04/07:30pm 11.4 7.1 5.3 66 2.9 NNW 17 26 9 14 1006.6 1005.4 0.4
04/07:00pm 11.6 7.0 5.5 66 2.9 NW 19 32 10 17 1005.9 1004.8 0.4
04/06:30pm 12.7 8.3 6.5 66 3.1 WNW 19 32 10 17 1005.1 1003.9 0.4
04/06:00pm 12.9 9.0 6.9 67 3.0 WNW 17 28 9 15 1004.3 1003.2 0.4
04/05:42pm 12.3 6.8 7.4 72 2.5 W 26 56 14 30 1004.2 1003.1 0.4
04/05:30pm 13.6 8.7 6.7 63 3.4 WNW 22 37 12 20 1003.7 1002.5 0.4
04/05:14pm 13.5 7.4 6.8 64 3.3 WNW 28 50 15 27 1003.5 1002.3 0.4
04/05:00pm 14.8 10.1 7.8 63 3.6 WNW 22 41 12 22 1003.4 1002.2 0.4
04/04:30pm 13.2 9.0 8.3 72 2.5 WNW 20 43 11 23 1003.1 1001.9 0.4
04/04:00pm 12.9 9.1 9.7 81 1.7 NW 20 35 11 19 1002.7 1001.6 0.4
04/03:30pm 14.7 9.6 7.7 63 3.6 WNW 24 39 13 21 1002.3 1001.1 0.0
04/03:01pm 14.6 8.7 7.6 63 3.6 NW 28 46 15 25 1002.0 1000.8 0.0
04/03:00pm 14.2 7.8 7.0 62 3.6 NW 30 46 16 25 1001.9 1000.7 0.0
04/02:59pm 14.4 8.5 7.5 63 3.5 NW 28 46 15 25 1001.9 1000.7 0.0
04/02:30pm 15.0 8.9 6.8 58 4.1 NW 28 44 15 24 1001.7 1000.5 0.0
04/02:01pm 15.1 9.0 6.7 57 4.2 NW 28 48 15 26 1001.3 1000.1 0.0
04/02:00pm 15.1 9.0 6.7 57 4.3 NW 28 41 15 22 1001.3 1000.1 0.0
04/01:30pm 15.3 9.5 8.1 62 3.7 NW 28 52 15 28 1001.0 999.9 0.0
04/01:12pm 14.8 8.9 7.4 61 3.8 NW 28 48 15 26 1000.9 999.7 0.0
04/01:00pm 15.1 10.1 7.9 62 3.7 NW 24 39 13 21 1000.8 999.6 0.0
04/12:35pm 15.4 9.2 7.7 60 4.0 NW 30 50 16 27 1001.0 999.9 0.0
04/12:30pm 15.3 9.8 7.6 60 4.0 NW 26 43 14 23 1000.7 999.5 0.0
04/12:00pm 15.1 9.0 8.3 64 3.6 NW 30 43 16 23 1000.7 999.5 0.0
04/11:32am 14.2 7.8 8.4 68 3.0 WNW 32 50 17 27 1000.7 999.5 0.0
04/11:30am 14.3 8.3 8.5 68 3.0 WNW 30 46 16 25 1000.8 999.6 0.0
04/11:00am 15.0 9.6 9.4 69 3.0 NW 28 56 15 30 1000.1 998.9 0.0
04/10:33am 15.7 10.2 9.1 65 3.5 NW 28 46 15 25 999.1 997.9 0.0
04/10:30am 15.8 11.2 9.5 66 3.4 NW 24 46 13 25 999.1 997.9 0.0
04/10:00am 15.5 11.6 9.6 68 3.2 NW 20 43 11 23 999.0 997.8 0.0
04/09:30am 15.4 13.7 13.6 89 1.0 N 15 26 8 14 998.4 997.2 0.0
04/09:00am 14.3 12.4 14.3 100 0.0 N 17 24 9 13 998.5 997.3 6.2
04/08:30am 14.0 12.0 14.0 100 0.0 N 17 22 9 12 998.2 997.0 6.2
04/08:00am 13.6 12.3 13.6 100 0.0 N 13 20 7 11 997.9 996.6 6.2
04/07:30am 13.4 12.0 13.4 100 0.0 N 13 20 7 11 997.6 996.3 6.2
04/07:00am 13.2 12.5 13.2 100 0.0 WNW 9 15 5 8 997.0 995.8 6.2
04/06:30am 13.3 12.6 13.3 100 0.0 E 9 11 5 6 995.8 994.5 6.2
04/06:00am 13.3 14.3 13.3 100 0.0 CALM 0 0 0 0 996.8 995.6 5.8
04/05:30am 13.3 14.0 13.3 100 0.0 N 2 7 1 4 997.3 996.1 5.6
04/05:00am 13.4 14.5 13.4 100 0.0 CALM 0 0 0 0 997.2 996.0 5.2
04/04:30am 13.4 14.5 13.4 100 0.0 CALM 0 0 0 0 997.6 996.3 4.0
04/04:00am 13.6 14.7 13.6 100 0.0 CALM 0 7 0 4 997.9 996.6 2.6
04/03:30am 13.7 14.1 13.7 100 0.0 ENE 4 7 2 4 998.1 996.9 2.6
04/03:00am 13.7 14.5 13.7 100 0.0 NNE 2 6 1 3 999.2 998.0 2.6
04/02:30am 13.6 14.7 13.6 100 0.0 CALM 0 0 0 0 1000.0 998.8 2.6
04/02:00am 13.6 14.0 13.6 100 0.0 NNW 4 7 2 4 1000.8 999.6 2.6
04/01:30am 13.5 14.6 13.5 100 0.0 CALM 0 0 0 0 1000.9 999.7 2.6
04/01:00am 13.5 14.6 13.5 100 0.0 CALM 0 0 0 0 1001.7 1000.5 2.6
04/12:30am 13.5 14.6 13.5 100 0.0 CALM 0 0 0 0 1002.4 1001.2 2.6
04/12:00am 13.4 14.5 13.4 100 0.0 CALM 0 0 0 0 1003.1 1001.9 2.6
 
Date/Time
EST
Temp
°C
App
Temp
°C
Dew
Point
°C
Rel
Hum
%
Delta-T
°C
Wind Press
QNH
hPa
Press
MSL
hPa
Rain since
9am
mm
Dir  Spd
km/h
Gust
km/h
Spd
kts
Gust
kts
03/11:30pm 13.5 14.5 13.2 98 0.2 CALM 0 0 0 0 1003.6 1002.4 2.6
03/11:00pm 13.9 13.8 13.3 96 0.3 ENE 6 9 3 5 1003.9 1002.7 2.2
03/10:30pm 14.3 14.5 14.3 100 0.0 ENE 6 11 3 6 1004.5 1003.4 2.0
03/10:00pm 14.2 15.5 14.2 100 0.0 CALM 0 0 0 0 1004.9 1003.7 1.8
03/09:30pm 14.1 15.4 14.1 100 0.0 CALM 0 0 0 0 1005.1 1003.9 1.8
03/09:00pm 14.2 15.5 14.2 100 0.0 CALM 0 0 0 0 1005.3 1004.1 1.8
03/08:30pm 14.3 15.6 14.1 99 0.1 CALM 0 0 0 0 1005.6 1004.5 1.8
03/08:00pm 14.5 14.5 14.3 99 0.1 S 7 9 4 5 1005.9 1004.8 1.8
03/07:30pm 14.5 14.6 14.5 100 0.0 SSW 7 11 4 6 1005.7 1004.6 1.8
03/07:00pm 14.8 15.2 14.8 100 0.0 SW 6 6 3 3 1005.9 1004.8 1.8
03/06:30pm 15.2 16.9 15.2 100 0.0 CALM 0 7 0 4 1005.9 1004.8 1.2
03/06:00pm 15.6 16.5 15.0 96 0.4 ENE 4 9 2 5 1006.0 1004.9 1.0
03/05:30pm 15.8 17.1 14.2 90 0.9 CALM 0 6 0 3 1006.2 1005.1 0.6
03/05:00pm 16.0 16.8 13.7 86 1.3 SSW 2 7 1 4 1006.7 1005.5 0.2
03/04:30pm 16.2 17.1 12.9 81 1.9 CALM 0 0 0 0 1007.3 1006.2 0.0
03/04:00pm 16.5 15.9 12.3 76 2.4 N 7 13 4 7 1007.6 1006.5 0.0
03/03:30pm 16.8 16.0 11.7 72 2.9 NNE 7 11 4 6 1007.6 1006.5 0.0
03/03:00pm 16.5 15.2 11.2 71 2.9 NNE 9 15 5 8 1007.9 1006.8 0.0
03/02:30pm 16.3 14.4 10.6 69 3.1 NNE 11 13 6 7 1008.5 1007.4 0.0
03/02:00pm 16.4 14.9 10.7 69 3.1 N 9 13 5 7 1009.1 1008.0 0.0
03/01:30pm 16.3 14.8 10.6 69 3.1 N 9 15 5 8 1009.4 1008.3 0.0
03/01:00pm 16.4 15.4 11.1 71 2.9 NNE 7 11 4 6 1009.5 1008.4 0.0
03/12:30pm 16.0 15.8 10.5 70 3.0 N 2 9 1 5 1009.9 1008.9 0.0
03/12:00pm 15.5 14.4 10.7 73 2.6 N 7 11 4 6 1010.4 1009.3 0.0
03/11:30am 15.1 14.4 12.1 82 1.7 ENE 7 11 4 6 1010.7 1009.6 0.0
03/11:00am 14.1 13.1 12.3 89 1.0 E 9 11 5 6 1010.9 1009.8 0.0
03/10:30am 13.6 12.8 11.8 89 1.0 NE 7 9 4 5 1011.3 1010.2 0.0
03/10:00am 13.3 12.8 12.5 95 0.4 ENE 7 13 4 7 1010.9 1009.8 0.0
03/09:30am 12.7 12.7 12.5 99 0.1 ENE 4 9 2 5 1010.8 1009.7 0.0
03/09:00am 12.3 12.6 12.1 99 0.1 ESE 2 6 1 3 1010.6 1009.5 23.2
03/08:30am 11.7 12.2 11.7 100 0.0 CALM 0 2 0 1 1010.5 1009.4 23.2
03/08:00am 11.0 11.3 10.8 99 0.1 CALM 0 0 0 0 1010.5 1009.4 23.2
03/07:30am 11.4 10.6 11.2 99 0.1 NE 6 7 3 4 1010.4 1009.3 23.2
03/07:00am 10.6 10.4 10.4 99 0.1 NE 2 9 1 5 1010.6 1009.5 23.2
03/06:30am 10.8 10.9 10.2 96 0.3 CALM 0 0 0 0 1010.4 1009.3 23.2

Latest Capital City Observations: Canberra | Sydney | Melbourne | Brisbane | Adelaide | Perth | Hobart | Darwin

Other formats

Comma delimited format used in spreadsheet applications
http://www.bom.gov.au/fwo/IDN60903/IDN60903.94925.axf

JavaScript Object Notation format (JSON) in row-major order
http://www.bom.gov.au/fwo/IDN60903/IDN60903.94925.json

Data quality

Most of these data are generated automatically and are frequently updated. Quality checks on data are not normally performed. It is possible for incorrect values to appear. Refer to information at About Latest Weather Observations and please check the disclaimer before using these data.